sensor_id;sensor_type;location;lat;lon;timestamp;temperature;humidity
2783;DHT22;1399;47.072;15.452;2023-04-08T00:01:12;12.00;37.30
2783;DHT22;1399;47.072;15.452;2023-04-08T00:03:38;12.00;37.30
2783;DHT22;1399;47.072;15.452;2023-04-08T00:06:04;12.00;37.40
2783;DHT22;1399;47.072;15.452;2023-04-08T00:08:30;12.00;37.50
2783;DHT22;1399;47.072;15.452;2023-04-08T00:10:55;12.00;37.50
2783;DHT22;1399;47.072;15.452;2023-04-08T00:13:21;12.00;37.60
2783;DHT22;1399;47.072;15.452;2023-04-08T00:15:47;12.00;37.60
2783;DHT22;1399;47.072;15.452;2023-04-08T00:18:14;11.90;37.60
2783;DHT22;1399;47.072;15.452;2023-04-08T00:20:41;11.90;37.60
2783;DHT22;1399;47.072;15.452;2023-04-08T00:23:06;11.90;37.60
2783;DHT22;1399;47.072;15.452;2023-04-08T00:25:32;11.90;37.60
2783;DHT22;1399;47.072;15.452;2023-04-08T00:27:58;11.90;37.60
2783;DHT22;1399;47.072;15.452;2023-04-08T00:30:23;11.90;37.60
2783;DHT22;1399;47.072;15.452;2023-04-08T00:32:49;11.90;37.60
2783;DHT22;1399;47.072;15.452;2023-04-08T00:35:15;11.90;37.60
2783;DHT22;1399;47.072;15.452;2023-04-08T00:37:41;11.90;37.60
2783;DHT22;1399;47.072;15.452;2023-04-08T00:40:07;11.90;37.60
2783;DHT22;1399;47.072;15.452;2023-04-08T00:42:33;11.90;37.60
2783;DHT22;1399;47.072;15.452;2023-04-08T00:45:01;11.90;37.60
2783;DHT22;1399;47.072;15.452;2023-04-08T00:47:26;11.90;37.60
2783;DHT22;1399;47.072;15.452;2023-04-08T00:49:52;11.90;37.70
2783;DHT22;1399;47.072;15.452;2023-04-08T00:52:18;11.90;37.70
2783;DHT22;1399;47.072;15.452;2023-04-08T00:54:44;11.90;37.70
2783;DHT22;1399;47.072;15.452;2023-04-08T00:57:09;11.90;37.70
2783;DHT22;1399;47.072;15.452;2023-04-08T00:59:35;11.90;37.60
2783;DHT22;1399;47.072;15.452;2023-04-08T01:02:33;11.90;37.70
2783;DHT22;1399;47.072;15.452;2023-04-08T01:05:08;11.90;37.70
2783;DHT22;1399;47.072;15.452;2023-04-08T01:07:43;11.90;37.70
2783;DHT22;1399;47.072;15.452;2023-04-08T01:10:22;11.90;37.60
2783;DHT22;1399;47.072;15.452;2023-04-08T01:12:56;11.90;37.70
2783;DHT22;1399;47.072;15.452;2023-04-08T01:15:24;11.90;37.70
2783;DHT22;1399;47.072;15.452;2023-04-08T01:17:53;11.90;37.70
2783;DHT22;1399;47.072;15.452;2023-04-08T01:20:25;11.90;37.70
2783;DHT22;1399;47.072;15.452;2023-04-08T01:25:28;11.90;37.80
2783;DHT22;1399;47.072;15.452;2023-04-08T01:27:55;11.90;37.80
2783;DHT22;1399;47.072;15.452;2023-04-08T01:30:24;11.90;37.80
2783;DHT22;1399;47.072;15.452;2023-04-08T01:32:54;11.80;37.80
2783;DHT22;1399;47.072;15.452;2023-04-08T01:35:20;11.90;37.90
2783;DHT22;1399;47.072;15.452;2023-04-08T01:37:48;11.80;37.90
2783;DHT22;1399;47.072;15.452;2023-04-08T01:40:16;11.80;38.00
2783;DHT22;1399;47.072;15.452;2023-04-08T01:42:44;11.80;38.00
2783;DHT22;1399;47.072;15.452;2023-04-08T01:45:12;11.80;38.70
2783;DHT22;1399;47.072;15.452;2023-04-08T01:47:39;11.80;38.10
2783;DHT22;1399;47.072;15.452;2023-04-08T01:50:07;11.80;38.20
2783;DHT22;1399;47.072;15.452;2023-04-08T01:52:37;11.80;38.10
2783;DHT22;1399;47.072;15.452;2023-04-08T01:55:05;11.80;38.20
2783;DHT22;1399;47.072;15.452;2023-04-08T01:57:34;11.80;38.20
2783;DHT22;1399;47.072;15.452;2023-04-08T02:00:05;11.80;38.30
2783;DHT22;1399;47.072;15.452;2023-04-08T02:02:32;11.80;38.30
2783;DHT22;1399;47.072;15.452;2023-04-08T02:05:00;11.80;38.40
2783;DHT22;1399;47.072;15.452;2023-04-08T02:07:26;11.80;38.40
2783;DHT22;1399;47.072;15.452;2023-04-08T02:09:51;11.80;38.40
2783;DHT22;1399;47.072;15.452;2023-04-08T02:12:18;11.80;38.50
2783;DHT22;1399;47.072;15.452;2023-04-08T02:14:43;11.80;38.50
2783;DHT22;1399;47.072;15.452;2023-04-08T02:17:20;11.70;38.40
2783;DHT22;1399;47.072;15.452;2023-04-08T02:19:55;11.80;38.50
2783;DHT22;1399;47.072;15.452;2023-04-08T02:25:12;11.80;38.60
2783;DHT22;1399;47.072;15.452;2023-04-08T02:27:38;11.80;38.70
2783;DHT22;1399;47.072;15.452;2023-04-08T02:30:06;11.80;38.70
2783;DHT22;1399;47.072;15.452;2023-04-08T02:32:33;11.70;38.60
2783;DHT22;1399;47.072;15.452;2023-04-08T02:35:01;11.70;38.70
2783;DHT22;1399;47.072;15.452;2023-04-08T02:37:28;11.70;38.80
2783;DHT22;1399;47.072;15.452;2023-04-08T02:39:54;11.70;38.80
2783;DHT22;1399;47.072;15.452;2023-04-08T02:42:20;11.70;38.90
2783;DHT22;1399;47.072;15.452;2023-04-08T02:44:46;11.70;39.00
2783;DHT22;1399;47.072;15.452;2023-04-08T02:47:12;11.70;39.10
2783;DHT22;1399;47.072;15.452;2023-04-08T02:49:38;11.70;39.20
2783;DHT22;1399;47.072;15.452;2023-04-08T02:52:03;11.70;39.30
2783;DHT22;1399;47.072;15.452;2023-04-08T02:54:29;11.70;39.40
2783;DHT22;1399;47.072;15.452;2023-04-08T02:56:55;11.70;39.60
2783;DHT22;1399;47.072;15.452;2023-04-08T02:59:21;11.70;39.70
2783;DHT22;1399;47.072;15.452;2023-04-08T03:01:47;11.70;39.80
2783;DHT22;1399;47.072;15.452;2023-04-08T03:04:12;11.70;39.90
2783;DHT22;1399;47.072;15.452;2023-04-08T03:06:38;11.70;39.90
2783;DHT22;1399;47.072;15.452;2023-04-08T03:09:04;11.70;40.00
2783;DHT22;1399;47.072;15.452;2023-04-08T03:11:32;11.70;40.00
2783;DHT22;1399;47.072;15.452;2023-04-08T03:13:58;11.70;40.10
2783;DHT22;1399;47.072;15.452;2023-04-08T03:16:24;11.70;40.20
2783;DHT22;1399;47.072;15.452;2023-04-08T03:18:50;11.70;40.20
2783;DHT22;1399;47.072;15.452;2023-04-08T03:21:16;11.60;40.10
2783;DHT22;1399;47.072;15.452;2023-04-08T03:23:42;11.70;40.30
2783;DHT22;1399;47.072;15.452;2023-04-08T03:26:08;11.70;40.60
2783;DHT22;1399;47.072;15.452;2023-04-08T03:28:34;11.70;40.90
2783;DHT22;1399;47.072;15.452;2023-04-08T03:31:00;11.70;40.90
2783;DHT22;1399;47.072;15.452;2023-04-08T03:33:27;11.60;40.90
2783;DHT22;1399;47.072;15.452;2023-04-08T03:35:53;11.70;41.30
2783;DHT22;1399;47.072;15.452;2023-04-08T03:38:19;11.70;41.60
2783;DHT22;1399;47.072;15.452;2023-04-08T03:40:45;11.60;41.50
2783;DHT22;1399;47.072;15.452;2023-04-08T03:43:11;11.60;41.50
2783;DHT22;1399;47.072;15.452;2023-04-08T03:45:37;11.60;41.50
2783;DHT22;1399;47.072;15.452;2023-04-08T03:48:03;11.60;41.60
2783;DHT22;1399;47.072;15.452;2023-04-08T03:50:29;11.60;41.80
2783;DHT22;1399;47.072;15.452;2023-04-08T03:52:54;11.60;42.00
2783;DHT22;1399;47.072;15.452;2023-04-08T03:55:20;11.60;42.20
2783;DHT22;1399;47.072;15.452;2023-04-08T03:57:46;11.60;42.50
2783;DHT22;1399;47.072;15.452;2023-04-08T04:00:12;11.60;42.60
2783;DHT22;1399;47.072;15.452;2023-04-08T04:02:38;11.60;42.80
2783;DHT22;1399;47.072;15.452;2023-04-08T04:05:04;11.60;43.00
2783;DHT22;1399;47.072;15.452;2023-04-08T04:07:30;11.60;42.80
2783;DHT22;1399;47.072;15.452;2023-04-08T04:09:56;11.60;42.70
2783;DHT22;1399;47.072;15.452;2023-04-08T04:12:22;11.60;42.80
2783;DHT22;1399;47.072;15.452;2023-04-08T04:14:48;11.60;42.80
2783;DHT22;1399;47.072;15.452;2023-04-08T04:17:14;11.60;42.80
2783;DHT22;1399;47.072;15.452;2023-04-08T04:19:40;11.50;42.80
2783;DHT22;1399;47.072;15.452;2023-04-08T04:22:06;11.50;43.00
2783;DHT22;1399;47.072;15.452;2023-04-08T04:24:32;11.60;43.30
2783;DHT22;1399;47.072;15.452;2023-04-08T04:26:58;11.60;43.50
2783;DHT22;1399;47.072;15.452;2023-04-08T04:29:23;11.50;43.60
2783;DHT22;1399;47.072;15.452;2023-04-08T04:31:49;11.50;43.70
2783;DHT22;1399;47.072;15.452;2023-04-08T04:34:15;11.50;43.80
2783;DHT22;1399;47.072;15.452;2023-04-08T04:36:40;11.50;43.90
2783;DHT22;1399;47.072;15.452;2023-04-08T04:39:06;11.50;44.00
2783;DHT22;1399;47.072;15.452;2023-04-08T04:41:32;11.50;44.20
2783;DHT22;1399;47.072;15.452;2023-04-08T04:43:59;11.50;44.40
2783;DHT22;1399;47.072;15.452;2023-04-08T04:46:25;11.50;44.50
2783;DHT22;1399;47.072;15.452;2023-04-08T04:48:51;11.50;44.60
2783;DHT22;1399;47.072;15.452;2023-04-08T04:51:17;11.50;44.80
2783;DHT22;1399;47.072;15.452;2023-04-08T04:53:43;11.50;45.00
2783;DHT22;1399;47.072;15.452;2023-04-08T04:56:08;11.50;45.10
2783;DHT22;1399;47.072;15.452;2023-04-08T04:58:34;11.50;45.30
2783;DHT22;1399;47.072;15.452;2023-04-08T05:01:00;11.50;45.50
2783;DHT22;1399;47.072;15.452;2023-04-08T05:03:25;11.50;45.70
2783;DHT22;1399;47.072;15.452;2023-04-08T05:05:52;11.40;45.80
2783;DHT22;1399;47.072;15.452;2023-04-08T05:08:19;11.40;46.00
2783;DHT22;1399;47.072;15.452;2023-04-08T05:10:45;11.40;46.10
2783;DHT22;1399;47.072;15.452;2023-04-08T05:13:10;11.40;46.10
2783;DHT22;1399;47.072;15.452;2023-04-08T05:15:36;11.40;46.40
2783;DHT22;1399;47.072;15.452;2023-04-08T05:18:02;11.40;46.50
2783;DHT22;1399;47.072;15.452;2023-04-08T05:20:27;11.40;46.60
2783;DHT22;1399;47.072;15.452;2023-04-08T05:22:53;11.40;47.10
2783;DHT22;1399;47.072;15.452;2023-04-08T05:25:19;11.40;47.10
2783;DHT22;1399;47.072;15.452;2023-04-08T05:27:44;11.40;47.10
2783;DHT22;1399;47.072;15.452;2023-04-08T05:30:11;11.50;47.40
2783;DHT22;1399;47.072;15.452;2023-04-08T05:32:37;11.50;47.50
2783;DHT22;1399;47.072;15.452;2023-04-08T05:35:03;11.50;47.60
2783;DHT22;1399;47.072;15.452;2023-04-08T05:37:29;11.50;47.80
2783;DHT22;1399;47.072;15.452;2023-04-08T05:39:55;11.50;48.00
2783;DHT22;1399;47.072;15.452;2023-04-08T05:42:21;11.50;48.00
2783;DHT22;1399;47.072;15.452;2023-04-08T05:44:46;11.50;48.10
2783;DHT22;1399;47.072;15.452;2023-04-08T05:47:12;11.50;48.20
2783;DHT22;1399;47.072;15.452;2023-04-08T05:49:39;11.50;48.20
2783;DHT22;1399;47.072;15.452;2023-04-08T05:52:05;11.50;48.20
2783;DHT22;1399;47.072;15.452;2023-04-08T05:54:31;11.50;48.30
2783;DHT22;1399;47.072;15.452;2023-04-08T05:56:57;11.50;48.40
2783;DHT22;1399;47.072;15.452;2023-04-08T05:59:23;11.60;48.50
2783;DHT22;1399;47.072;15.452;2023-04-08T06:01:48;11.60;48.60
2783;DHT22;1399;47.072;15.452;2023-04-08T06:04:14;11.60;48.60
2783;DHT22;1399;47.072;15.452;2023-04-08T06:06:42;11.60;48.60
2783;DHT22;1399;47.072;15.452;2023-04-08T06:09:08;11.60;48.70
2783;DHT22;1399;47.072;15.452;2023-04-08T06:11:36;11.60;48.80
2783;DHT22;1399;47.072;15.452;2023-04-08T06:14:02;11.60;48.90
2783;DHT22;1399;47.072;15.452;2023-04-08T06:16:28;11.60;49.00
2783;DHT22;1399;47.072;15.452;2023-04-08T06:18:53;11.60;49.20
2783;DHT22;1399;47.072;15.452;2023-04-08T06:21:19;11.60;49.10
2783;DHT22;1399;47.072;15.452;2023-04-08T06:23:45;11.60;49.20
2783;DHT22;1399;47.072;15.452;2023-04-08T06:26:11;11.60;49.10
2783;DHT22;1399;47.072;15.452;2023-04-08T06:28:37;11.70;49.00
2783;DHT22;1399;47.072;15.452;2023-04-08T06:31:03;11.70;48.90
2783;DHT22;1399;47.072;15.452;2023-04-08T06:33:29;11.70;48.80
2783;DHT22;1399;47.072;15.452;2023-04-08T06:36:05;11.70;48.90
2783;DHT22;1399;47.072;15.452;2023-04-08T06:38:31;11.70;48.90
2783;DHT22;1399;47.072;15.452;2023-04-08T06:41:05;11.70;48.90
2783;DHT22;1399;47.072;15.452;2023-04-08T06:43:31;11.70;48.90
2783;DHT22;1399;47.072;15.452;2023-04-08T06:45:57;11.70;48.80
2783;DHT22;1399;47.072;15.452;2023-04-08T06:48:24;11.70;48.70
2783;DHT22;1399;47.072;15.452;2023-04-08T06:50:58;11.70;48.70
2783;DHT22;1399;47.072;15.452;2023-04-08T06:53:25;11.70;48.70
2783;DHT22;1399;47.072;15.452;2023-04-08T06:55:51;11.70;48.80
2783;DHT22;1399;47.072;15.452;2023-04-08T06:58:17;11.70;48.80
2783;DHT22;1399;47.072;15.452;2023-04-08T07:00:43;11.70;48.90
2783;DHT22;1399;47.072;15.452;2023-04-08T07:03:12;11.70;49.00
2783;DHT22;1399;47.072;15.452;2023-04-08T07:05:38;11.70;49.00
2783;DHT22;1399;47.072;15.452;2023-04-08T07:08:04;11.70;48.90
2783;DHT22;1399;47.072;15.452;2023-04-08T07:10:30;11.70;48.80
2783;DHT22;1399;47.072;15.452;2023-04-08T07:12:56;11.70;48.80
2783;DHT22;1399;47.072;15.452;2023-04-08T07:15:22;11.70;48.70
2783;DHT22;1399;47.072;15.452;2023-04-08T07:17:48;11.70;48.70
2783;DHT22;1399;47.072;15.452;2023-04-08T07:20:13;11.70;48.80
2783;DHT22;1399;47.072;15.452;2023-04-08T07:22:40;11.70;48.70
2783;DHT22;1399;47.072;15.452;2023-04-08T07:25:06;11.70;48.70
2783;DHT22;1399;47.072;15.452;2023-04-08T07:27:35;11.60;48.60
2783;DHT22;1399;47.072;15.452;2023-04-08T07:30:01;11.70;48.70
2783;DHT22;1399;47.072;15.452;2023-04-08T07:32:27;11.70;48.70
2783;DHT22;1399;47.072;15.452;2023-04-08T07:34:53;11.60;48.50
2783;DHT22;1399;47.072;15.452;2023-04-08T07:37:18;11.70;48.60
2783;DHT22;1399;47.072;15.452;2023-04-08T07:39:44;11.70;48.60
2783;DHT22;1399;47.072;15.452;2023-04-08T07:42:10;11.70;48.70
2783;DHT22;1399;47.072;15.452;2023-04-08T07:44:36;11.70;48.70
2783;DHT22;1399;47.072;15.452;2023-04-08T07:47:03;11.70;48.70
2783;DHT22;1399;47.072;15.452;2023-04-08T07:49:28;11.70;48.70
2783;DHT22;1399;47.072;15.452;2023-04-08T07:51:54;11.70;48.70
2783;DHT22;1399;47.072;15.452;2023-04-08T07:54:20;11.70;48.80
2783;DHT22;1399;47.072;15.452;2023-04-08T07:56:46;11.70;48.80
2783;DHT22;1399;47.072;15.452;2023-04-08T07:59:11;11.70;49.00
2783;DHT22;1399;47.072;15.452;2023-04-08T08:01:37;11.70;49.00
2783;DHT22;1399;47.072;15.452;2023-04-08T08:04:03;11.70;49.00
2783;DHT22;1399;47.072;15.452;2023-04-08T08:06:29;11.70;49.10
2783;DHT22;1399;47.072;15.452;2023-04-08T08:08:57;11.70;49.10
2783;DHT22;1399;47.072;15.452;2023-04-08T08:11:22;11.70;49.00
2783;DHT22;1399;47.072;15.452;2023-04-08T08:13:48;11.70;48.90
2783;DHT22;1399;47.072;15.452;2023-04-08T08:16:14;11.70;48.90
2783;DHT22;1399;47.072;15.452;2023-04-08T08:18:40;11.70;48.90
2783;DHT22;1399;47.072;15.452;2023-04-08T08:21:06;11.70;48.90
2783;DHT22;1399;47.072;15.452;2023-04-08T08:23:33;11.70;49.00
2783;DHT22;1399;47.072;15.452;2023-04-08T08:26:04;11.70;49.10
2783;DHT22;1399;47.072;15.452;2023-04-08T08:28:31;11.70;49.10
2783;DHT22;1399;47.072;15.452;2023-04-08T08:30:57;11.70;49.10
2783;DHT22;1399;47.072;15.452;2023-04-08T08:33:24;11.70;49.10
2783;DHT22;1399;47.072;15.452;2023-04-08T08:35:50;11.80;49.20
2783;DHT22;1399;47.072;15.452;2023-04-08T08:38:16;11.80;49.10
2783;DHT22;1399;47.072;15.452;2023-04-08T08:40:43;11.80;49.00
2783;DHT22;1399;47.072;15.452;2023-04-08T08:43:12;11.80;49.10
2783;DHT22;1399;47.072;15.452;2023-04-08T08:45:39;11.80;49.00
2783;DHT22;1399;47.072;15.452;2023-04-08T08:48:06;11.90;49.20
2783;DHT22;1399;47.072;15.452;2023-04-08T08:50:36;11.90;49.10
2783;DHT22;1399;47.072;15.452;2023-04-08T08:53:02;11.90;49.10
2783;DHT22;1399;47.072;15.452;2023-04-08T08:55:30;11.90;49.30
2783;DHT22;1399;47.072;15.452;2023-04-08T08:58:01;12.00;49.40
2783;DHT22;1399;47.072;15.452;2023-04-08T09:00:34;12.00;49.40
2783;DHT22;1399;47.072;15.452;2023-04-08T09:03:24;12.00;49.40
2783;DHT22;1399;47.072;15.452;2023-04-08T09:05:56;12.00;49.30
2783;DHT22;1399;47.072;15.452;2023-04-08T09:08:33;12.00;49.30
2783;DHT22;1399;47.072;15.452;2023-04-08T09:11:17;12.00;49.20
2783;DHT22;1399;47.072;15.452;2023-04-08T09:13:44;12.00;49.20
2783;DHT22;1399;47.072;15.452;2023-04-08T09:16:17;12.00;49.20
2783;DHT22;1399;47.072;15.452;2023-04-08T09:18:45;12.00;49.20
2783;DHT22;1399;47.072;15.452;2023-04-08T09:21:12;12.10;49.30
2783;DHT22;1399;47.072;15.452;2023-04-08T09:23:46;12.10;49.20
2783;DHT22;1399;47.072;15.452;2023-04-08T09:26:14;12.10;49.00
2783;DHT22;1399;47.072;15.452;2023-04-08T09:29:06;12.10;49.00
2783;DHT22;1399;47.072;15.452;2023-04-08T09:34:14;12.20;49.10
2783;DHT22;1399;47.072;15.452;2023-04-08T09:36:48;12.20;49.10
2783;DHT22;1399;47.072;15.452;2023-04-08T09:39:14;12.20;49.20
2783;DHT22;1399;47.072;15.452;2023-04-08T09:41:41;12.30;49.30
2783;DHT22;1399;47.072;15.452;2023-04-08T09:44:09;12.30;49.20
2783;DHT22;1399;47.072;15.452;2023-04-08T09:52:10;12.30;49.20
2783;DHT22;1399;47.072;15.452;2023-04-08T09:57:40;12.30;49.40
2783;DHT22;1399;47.072;15.452;2023-04-08T10:00:14;12.30;49.50
2783;DHT22;1399;47.072;15.452;2023-04-08T10:03:10;12.40;49.60
2783;DHT22;1399;47.072;15.452;2023-04-08T10:05:40;12.40;49.60
2783;DHT22;1399;47.072;15.452;2023-04-08T10:08:06;12.40;49.60
2783;DHT22;1399;47.072;15.452;2023-04-08T10:10:38;12.40;49.60
2783;DHT22;1399;47.072;15.452;2023-04-08T10:13:04;12.40;49.40
2783;DHT22;1399;47.072;15.452;2023-04-08T10:15:32;12.40;49.40
2783;DHT22;1399;47.072;15.452;2023-04-08T10:23:09;12.40;49.40
2783;DHT22;1399;47.072;15.452;2023-04-08T10:30:50;12.50;49.50
2783;DHT22;1399;47.072;15.452;2023-04-08T10:38:29;12.50;49.40
2783;DHT22;1399;47.072;15.452;2023-04-08T10:40:55;12.50;49.30
2783;DHT22;1399;47.072;15.452;2023-04-08T10:43:21;12.60;49.40
2783;DHT22;1399;47.072;15.452;2023-04-08T10:45:48;12.60;49.60
2783;DHT22;1399;47.072;15.452;2023-04-08T10:48:18;12.70;49.50
2783;DHT22;1399;47.072;15.452;2023-04-08T10:53:26;12.80;49.30
2783;DHT22;1399;47.072;15.452;2023-04-08T10:55:53;12.80;49.40
2783;DHT22;1399;47.072;15.452;2023-04-08T10:58:19;12.80;49.30
2783;DHT22;1399;47.072;15.452;2023-04-08T11:00:45;12.80;49.10
2783;DHT22;1399;47.072;15.452;2023-04-08T11:03:11;12.90;49.10
2783;DHT22;1399;47.072;15.452;2023-04-08T11:05:37;12.90;49.00
2783;DHT22;1399;47.072;15.452;2023-04-08T11:08:06;12.90;49.00
2783;DHT22;1399;47.072;15.452;2023-04-08T11:10:36;13.00;49.20
2783;DHT22;1399;47.072;15.452;2023-04-08T11:13:07;13.00;49.30
2783;DHT22;1399;47.072;15.452;2023-04-08T11:15:35;13.00;49.10
2783;DHT22;1399;47.072;15.452;2023-04-08T11:18:05;13.00;48.80
2783;DHT22;1399;47.072;15.452;2023-04-08T11:20:32;13.10;48.80
2783;DHT22;1399;47.072;15.452;2023-04-08T11:23:01;13.10;48.80
2783;DHT22;1399;47.072;15.452;2023-04-08T11:25:28;13.20;48.90
2783;DHT22;1399;47.072;15.452;2023-04-08T11:27:54;13.30;48.70
2783;DHT22;1399;47.072;15.452;2023-04-08T11:30:20;13.40;48.70
2783;DHT22;1399;47.072;15.452;2023-04-08T11:32:47;13.40;48.60
2783;DHT22;1399;47.072;15.452;2023-04-08T11:35:15;13.40;48.30
2783;DHT22;1399;47.072;15.452;2023-04-08T11:37:41;13.50;48.40
2783;DHT22;1399;47.072;15.452;2023-04-08T11:40:11;13.50;48.30
2783;DHT22;1399;47.072;15.452;2023-04-08T11:42:38;13.50;48.20
2783;DHT22;1399;47.072;15.452;2023-04-08T11:45:11;13.50;48.20
2783;DHT22;1399;47.072;15.452;2023-04-08T11:47:37;13.50;48.80
2783;DHT22;1399;47.072;15.452;2023-04-08T11:50:04;13.60;48.30
2783;DHT22;1399;47.072;15.452;2023-04-08T11:52:49;13.60;48.30
2783;DHT22;1399;47.072;15.452;2023-04-08T11:57:47;13.60;47.90
2783;DHT22;1399;47.072;15.452;2023-04-08T12:00:13;13.60;47.60
2783;DHT22;1399;47.072;15.452;2023-04-08T12:02:39;13.60;47.40
2783;DHT22;1399;47.072;15.452;2023-04-08T12:05:05;13.60;47.40
2783;DHT22;1399;47.072;15.452;2023-04-08T12:07:32;13.60;47.40
2783;DHT22;1399;47.072;15.452;2023-04-08T12:09:58;13.60;47.30
2783;DHT22;1399;47.072;15.452;2023-04-08T12:12:23;13.60;47.40
2783;DHT22;1399;47.072;15.452;2023-04-08T12:14:49;13.60;47.30
2783;DHT22;1399;47.072;15.452;2023-04-08T12:17:15;13.60;47.30
2783;DHT22;1399;47.072;15.452;2023-04-08T12:19:41;13.60;47.20
2783;DHT22;1399;47.072;15.452;2023-04-08T12:22:07;13.60;47.30
2783;DHT22;1399;47.072;15.452;2023-04-08T12:24:33;13.70;47.30
2783;DHT22;1399;47.072;15.452;2023-04-08T12:26:58;13.60;47.20
2783;DHT22;1399;47.072;15.452;2023-04-08T12:29:26;13.70;47.30
2783;DHT22;1399;47.072;15.452;2023-04-08T12:31:52;13.60;47.20
2783;DHT22;1399;47.072;15.452;2023-04-08T12:34:18;13.60;47.40
2783;DHT22;1399;47.072;15.452;2023-04-08T12:36:44;13.60;47.50
2783;DHT22;1399;47.072;15.452;2023-04-08T12:39:10;13.60;47.50
2783;DHT22;1399;47.072;15.452;2023-04-08T12:41:36;13.60;47.50
2783;DHT22;1399;47.072;15.452;2023-04-08T12:44:01;13.60;47.50
2783;DHT22;1399;47.072;15.452;2023-04-08T12:46:27;13.60;47.60
2783;DHT22;1399;47.072;15.452;2023-04-08T12:48:53;13.70;47.70
2783;DHT22;1399;47.072;15.452;2023-04-08T12:51:19;13.70;47.60
2783;DHT22;1399;47.072;15.452;2023-04-08T12:53:44;13.70;47.50
2783;DHT22;1399;47.072;15.452;2023-04-08T12:56:10;13.70;47.40
2783;DHT22;1399;47.072;15.452;2023-04-08T12:58:36;13.70;47.40
2783;DHT22;1399;47.072;15.452;2023-04-08T13:01:02;13.70;47.40
2783;DHT22;1399;47.072;15.452;2023-04-08T13:03:28;13.70;47.40
2783;DHT22;1399;47.072;15.452;2023-04-08T13:05:56;13.70;47.50
2783;DHT22;1399;47.072;15.452;2023-04-08T13:08:24;13.70;47.60
2783;DHT22;1399;47.072;15.452;2023-04-08T13:10:49;13.60;47.50
2783;DHT22;1399;47.072;15.452;2023-04-08T13:13:15;13.60;47.60
2783;DHT22;1399;47.072;15.452;2023-04-08T13:15:41;13.50;47.80
2783;DHT22;1399;47.072;15.452;2023-04-08T13:18:08;13.50;47.90
2783;DHT22;1399;47.072;15.452;2023-04-08T13:20:34;13.50;48.20
2783;DHT22;1399;47.072;15.452;2023-04-08T13:23:01;13.40;48.60
2783;DHT22;1399;47.072;15.452;2023-04-08T13:25:27;13.40;48.80
2783;DHT22;1399;47.072;15.452;2023-04-08T13:27:52;13.30;48.90
2783;DHT22;1399;47.072;15.452;2023-04-08T13:30:18;13.30;49.80
2783;DHT22;1399;47.072;15.452;2023-04-08T13:32:44;13.20;49.30
2783;DHT22;1399;47.072;15.452;2023-04-08T13:35:09;13.20;49.50
2783;DHT22;1399;47.072;15.452;2023-04-08T13:37:36;13.10;49.70
2783;DHT22;1399;47.072;15.452;2023-04-08T13:40:02;13.10;49.80
2783;DHT22;1399;47.072;15.452;2023-04-08T13:42:28;13.00;49.90
2783;DHT22;1399;47.072;15.452;2023-04-08T13:44:56;13.00;50.10
2783;DHT22;1399;47.072;15.452;2023-04-08T13:47:22;12.90;50.20
2783;DHT22;1399;47.072;15.452;2023-04-08T13:49:48;12.90;50.20
2783;DHT22;1399;47.072;15.452;2023-04-08T13:52:13;12.80;50.30
2783;DHT22;1399;47.072;15.452;2023-04-08T13:54:40;12.80;50.30
2783;DHT22;1399;47.072;15.452;2023-04-08T13:57:05;12.80;50.40
2783;DHT22;1399;47.072;15.452;2023-04-08T13:59:31;12.70;50.50
2783;DHT22;1399;47.072;15.452;2023-04-08T14:01:57;12.70;50.60
2783;DHT22;1399;47.072;15.452;2023-04-08T14:04:22;12.70;50.60
2783;DHT22;1399;47.072;15.452;2023-04-08T14:06:49;12.70;50.70
2783;DHT22;1399;47.072;15.452;2023-04-08T14:09:21;12.60;50.80
2783;DHT22;1399;47.072;15.452;2023-04-08T14:11:47;12.60;50.90
2783;DHT22;1399;47.072;15.452;2023-04-08T14:14:12;12.60;51.10
2783;DHT22;1399;47.072;15.452;2023-04-08T14:16:38;12.60;51.10
2783;DHT22;1399;47.072;15.452;2023-04-08T14:19:04;12.50;51.10
2783;DHT22;1399;47.072;15.452;2023-04-08T14:21:30;12.50;51.10
2783;DHT22;1399;47.072;15.452;2023-04-08T14:23:56;12.50;51.20
2783;DHT22;1399;47.072;15.452;2023-04-08T14:26:22;12.50;51.20
2783;DHT22;1399;47.072;15.452;2023-04-08T14:28:48;12.40;51.20
2783;DHT22;1399;47.072;15.452;2023-04-08T14:31:14;12.40;51.30
2783;DHT22;1399;47.072;15.452;2023-04-08T14:33:40;12.40;51.30
2783;DHT22;1399;47.072;15.452;2023-04-08T14:36:07;12.40;51.50
2783;DHT22;1399;47.072;15.452;2023-04-08T14:38:33;12.40;51.50
2783;DHT22;1399;47.072;15.452;2023-04-08T14:40:59;12.30;51.50
2783;DHT22;1399;47.072;15.452;2023-04-08T14:43:24;12.40;51.70
2783;DHT22;1399;47.072;15.452;2023-04-08T14:45:50;12.30;51.70
2783;DHT22;1399;47.072;15.452;2023-04-08T14:48:17;12.30;51.80
2783;DHT22;1399;47.072;15.452;2023-04-08T14:50:43;12.30;51.90
2783;DHT22;1399;47.072;15.452;2023-04-08T14:53:09;12.30;51.90
2783;DHT22;1399;47.072;15.452;2023-04-08T14:55:35;12.30;51.90
2783;DHT22;1399;47.072;15.452;2023-04-08T14:58:00;12.20;51.90
2783;DHT22;1399;47.072;15.452;2023-04-08T15:00:26;12.20;52.00
2783;DHT22;1399;47.072;15.452;2023-04-08T15:02:52;12.20;52.10
2783;DHT22;1399;47.072;15.452;2023-04-08T15:05:18;12.20;52.20
2783;DHT22;1399;47.072;15.452;2023-04-08T15:07:44;12.20;52.40
2783;DHT22;1399;47.072;15.452;2023-04-08T15:10:11;12.10;52.40
2783;DHT22;1399;47.072;15.452;2023-04-08T15:12:37;12.10;52.50
2783;DHT22;1399;47.072;15.452;2023-04-08T15:15:03;12.10;52.50
2783;DHT22;1399;47.072;15.452;2023-04-08T15:17:29;12.10;52.50
2783;DHT22;1399;47.072;15.452;2023-04-08T15:19:55;12.10;52.60
2783;DHT22;1399;47.072;15.452;2023-04-08T15:22:21;12.00;52.50
2783;DHT22;1399;47.072;15.452;2023-04-08T15:24:47;12.00;52.50
2783;DHT22;1399;47.072;15.452;2023-04-08T15:27:12;12.00;52.60
2783;DHT22;1399;47.072;15.452;2023-04-08T15:29:39;11.90;52.50
2783;DHT22;1399;47.072;15.452;2023-04-08T15:32:04;11.90;52.40
2783;DHT22;1399;47.072;15.452;2023-04-08T15:34:30;11.90;52.40
2783;DHT22;1399;47.072;15.452;2023-04-08T15:36:56;11.90;52.40
2783;DHT22;1399;47.072;15.452;2023-04-08T15:39:22;11.90;52.40
2783;DHT22;1399;47.072;15.452;2023-04-08T15:41:48;11.90;52.50
2783;DHT22;1399;47.072;15.452;2023-04-08T15:44:14;11.90;52.50
2783;DHT22;1399;47.072;15.452;2023-04-08T15:46:40;11.80;52.40
2783;DHT22;1399;47.072;15.452;2023-04-08T15:49:06;11.80;52.40
2783;DHT22;1399;47.072;15.452;2023-04-08T15:51:34;11.80;52.40
2783;DHT22;1399;47.072;15.452;2023-04-08T15:54:00;11.80;52.50
2783;DHT22;1399;47.072;15.452;2023-04-08T15:56:26;11.80;52.60
2783;DHT22;1399;47.072;15.452;2023-04-08T15:58:54;11.80;52.60
2783;DHT22;1399;47.072;15.452;2023-04-08T16:01:22;11.70;52.50
2783;DHT22;1399;47.072;15.452;2023-04-08T16:03:48;11.70;52.40
2783;DHT22;1399;47.072;15.452;2023-04-08T16:06:14;11.70;52.40
2783;DHT22;1399;47.072;15.452;2023-04-08T16:08:39;11.70;52.40
2783;DHT22;1399;47.072;15.452;2023-04-08T16:11:06;11.70;52.40
2783;DHT22;1399;47.072;15.452;2023-04-08T16:13:33;11.60;52.30
2783;DHT22;1399;47.072;15.452;2023-04-08T16:16:02;11.60;52.20
2783;DHT22;1399;47.072;15.452;2023-04-08T16:18:29;11.60;52.20
2783;DHT22;1399;47.072;15.452;2023-04-08T16:20:55;11.60;52.90